sensor_id;sensor_type;location;lat;lon;timestamp;temperature;humidity
29281;DHT22;25048;49.590;11.026;2022-12-04T00:00:33;2.40;99.90
29281;DHT22;25048;49.590;11.026;2022-12-04T00:03:01;2.30;99.90
29281;DHT22;25048;49.590;11.026;2022-12-04T00:05:28;2.30;99.90
29281;DHT22;25048;49.590;11.026;2022-12-04T00:07:56;2.30;99.90
29281;DHT22;25048;49.590;11.026;2022-12-04T00:10:23;2.20;99.90
29281;DHT22;25048;49.590;11.026;2022-12-04T00:12:51;2.30;99.90
29281;DHT22;25048;49.590;11.026;2022-12-04T00:15:19;2.30;99.90
29281;DHT22;25048;49.590;11.026;2022-12-04T00:17:47;2.30;99.90
29281;DHT22;25048;49.590;11.026;2022-12-04T00:20:15;2.30;99.90
29281;DHT22;25048;49.590;11.026;2022-12-04T00:22:43;2.30;99.90
29281;DHT22;25048;49.590;11.026;2022-12-04T00:25:10;2.30;99.90
29281;DHT22;25048;49.590;11.026;2022-12-04T00:27:38;2.40;99.90
29281;DHT22;25048;49.590;11.026;2022-12-04T00:30:06;2.40;99.90
29281;DHT22;25048;49.590;11.026;2022-12-04T00:32:34;2.40;99.90
29281;DHT22;25048;49.590;11.026;2022-12-04T00:35:01;2.40;99.90
29281;DHT22;25048;49.590;11.026;2022-12-04T00:37:29;2.50;99.90
29281;DHT22;25048;49.590;11.026;2022-12-04T00:39:58;2.50;99.90
29281;DHT22;25048;49.590;11.026;2022-12-04T00:42:26;2.50;99.90
29281;DHT22;25048;49.590;11.026;2022-12-04T00:44:53;2.50;99.90
29281;DHT22;25048;49.590;11.026;2022-12-04T00:47:21;2.40;99.90
29281;DHT22;25048;49.590;11.026;2022-12-04T00:49:49;2.50;99.90
29281;DHT22;25048;49.590;11.026;2022-12-04T00:52:17;2.50;99.90
29281;DHT22;25048;49.590;11.026;2022-12-04T00:54:44;2.50;99.90
29281;DHT22;25048;49.590;11.026;2022-12-04T00:57:12;2.50;99.90
29281;DHT22;25048;49.590;11.026;2022-12-04T00:59:39;2.50;99.90
29281;DHT22;25048;49.590;11.026;2022-12-04T01:02:07;2.40;99.90
29281;DHT22;25048;49.590;11.026;2022-12-04T01:04:34;2.50;99.90
29281;DHT22;25048;49.590;11.026;2022-12-04T01:07:02;2.50;99.90
29281;DHT22;25048;49.590;11.026;2022-12-04T01:09:29;2.50;99.90
29281;DHT22;25048;49.590;11.026;2022-12-04T01:11:56;2.50;99.90
29281;DHT22;25048;49.590;11.026;2022-12-04T01:14:24;2.50;99.90
29281;DHT22;25048;49.590;11.026;2022-12-04T01:16:52;2.50;99.90
29281;DHT22;25048;49.590;11.026;2022-12-04T01:19:19;2.50;99.90
29281;DHT22;25048;49.590;11.026;2022-12-04T01:21:47;2.50;99.90
29281;DHT22;25048;49.590;11.026;2022-12-04T01:24:14;2.50;99.90
29281;DHT22;25048;49.590;11.026;2022-12-04T01:26:42;2.40;99.90
29281;DHT22;25048;49.590;11.026;2022-12-04T01:29:09;2.50;99.90
29281;DHT22;25048;49.590;11.026;2022-12-04T01:31:36;2.50;99.90
29281;DHT22;25048;49.590;11.026;2022-12-04T01:34:04;2.60;99.90
29281;DHT22;25048;49.590;11.026;2022-12-04T01:36:31;2.60;99.90
29281;DHT22;25048;49.590;11.026;2022-12-04T01:38:59;2.60;99.90
29281;DHT22;25048;49.590;11.026;2022-12-04T01:41:29;2.60;99.90
29281;DHT22;25048;49.590;11.026;2022-12-04T01:44:18;2.60;99.90
29281;DHT22;25048;49.590;11.026;2022-12-04T01:46:51;2.60;99.90
29281;DHT22;25048;49.590;11.026;2022-12-04T01:49:31;2.60;99.90
29281;DHT22;25048;49.590;11.026;2022-12-04T01:52:06;2.60;99.90
29281;DHT22;25048;49.590;11.026;2022-12-04T01:54:32;2.60;99.90
29281;DHT22;25048;49.590;11.026;2022-12-04T01:57:06;2.60;99.90
29281;DHT22;25048;49.590;11.026;2022-12-04T01:59:34;2.60;99.90
29281;DHT22;25048;49.590;11.026;2022-12-04T02:02:10;2.60;99.90
29281;DHT22;25048;49.590;11.026;2022-12-04T02:04:39;2.60;99.90
29281;DHT22;25048;49.590;11.026;2022-12-04T02:07:07;2.60;99.90
29281;DHT22;25048;49.590;11.026;2022-12-04T02:09:36;2.60;99.90
29281;DHT22;25048;49.590;11.026;2022-12-04T02:12:31;2.60;99.90
29281;DHT22;25048;49.590;11.026;2022-12-04T02:23:31;2.70;99.90
29281;DHT22;25048;49.590;11.026;2022-12-04T02:28:48;2.70;99.90
29281;DHT22;25048;49.590;11.026;2022-12-04T02:31:19;2.70;99.90
29281;DHT22;25048;49.590;11.026;2022-12-04T02:34:04;2.70;99.90
29281;DHT22;25048;49.590;11.026;2022-12-04T02:36:26;2.70;99.90
29281;DHT22;25048;49.590;11.026;2022-12-04T02:39:25;2.70;99.90
29281;DHT22;25048;49.590;11.026;2022-12-04T02:41:56;2.70;99.90
29281;DHT22;25048;49.590;11.026;2022-12-04T02:44:41;2.70;99.90
29281;DHT22;25048;49.590;11.026;2022-12-04T02:47:10;2.70;99.90
29281;DHT22;25048;49.590;11.026;2022-12-04T02:49:41;2.60;99.90
29281;DHT22;25048;49.590;11.026;2022-12-04T02:52:11;2.60;99.90
29281;DHT22;25048;49.590;11.026;2022-12-04T02:54:41;2.60;99.90
29281;DHT22;25048;49.590;11.026;2022-12-04T02:57:12;2.60;99.90
29281;DHT22;25048;49.590;11.026;2022-12-04T02:59:42;2.60;99.90
29281;DHT22;25048;49.590;11.026;2022-12-04T03:02:24;2.60;99.90
29281;DHT22;25048;49.590;11.026;2022-12-04T03:04:48;2.60;99.90
29281;DHT22;25048;49.590;11.026;2022-12-04T03:07:19;2.60;99.90
29281;DHT22;25048;49.590;11.026;2022-12-04T03:09:54;2.70;99.90
29281;DHT22;25048;49.590;11.026;2022-12-04T03:13:21;2.70;99.90
29281;DHT22;25048;49.590;11.026;2022-12-04T03:15:00;2.70;99.90
29281;DHT22;25048;49.590;11.026;2022-12-04T03:17:36;2.70;99.90
29281;DHT22;25048;49.590;11.026;2022-12-04T03:20:02;2.70;99.90
29281;DHT22;25048;49.590;11.026;2022-12-04T03:22:31;2.70;99.90
29281;DHT22;25048;49.590;11.026;2022-12-04T03:25:00;2.70;99.90
29281;DHT22;25048;49.590;11.026;2022-12-04T03:27:33;2.70;99.90
29281;DHT22;25048;49.590;11.026;2022-12-04T03:30:05;2.70;99.90
29281;DHT22;25048;49.590;11.026;2022-12-04T03:35:35;2.70;99.90
29281;DHT22;25048;49.590;11.026;2022-12-04T03:38:22;2.70;99.90
29281;DHT22;25048;49.590;11.026;2022-12-04T03:44:18;2.70;99.90
29281;DHT22;25048;49.590;11.026;2022-12-04T03:46:15;2.80;99.90
29281;DHT22;25048;49.590;11.026;2022-12-04T03:48:45;2.80;99.90
29281;DHT22;25048;49.590;11.026;2022-12-04T03:53:53;2.80;99.90
29281;DHT22;25048;49.590;11.026;2022-12-04T03:56:23;2.80;99.90
29281;DHT22;25048;49.590;11.026;2022-12-04T03:59:02;2.80;99.90
29281;DHT22;25048;49.590;11.026;2022-12-04T04:01:27;2.80;99.90
29281;DHT22;25048;49.590;11.026;2022-12-04T04:03:56;2.70;99.90
29281;DHT22;25048;49.590;11.026;2022-12-04T04:06:30;2.80;99.90
29281;DHT22;25048;49.590;11.026;2022-12-04T04:09:00;2.80;99.90
29281;DHT22;25048;49.590;11.026;2022-12-04T04:11:31;2.80;99.90
29281;DHT22;25048;49.590;11.026;2022-12-04T04:14:01;2.80;99.90
29281;DHT22;25048;49.590;11.026;2022-12-04T04:16:52;2.90;99.90
29281;DHT22;25048;49.590;11.026;2022-12-04T04:19:37;2.90;99.90
29281;DHT22;25048;49.590;11.026;2022-12-04T04:22:24;2.80;99.90
29281;DHT22;25048;49.590;11.026;2022-12-04T04:25:19;2.90;99.90
29281;DHT22;25048;49.590;11.026;2022-12-04T04:27:51;2.90;99.90
29281;DHT22;25048;49.590;11.026;2022-12-04T04:30:19;2.90;99.90
29281;DHT22;25048;49.590;11.026;2022-12-04T04:33:10;2.90;99.90
29281;DHT22;25048;49.590;11.026;2022-12-04T04:35:54;2.90;99.90
29281;DHT22;25048;49.590;11.026;2022-12-04T04:38:26;2.90;99.90
29281;DHT22;25048;49.590;11.026;2022-12-04T04:41:16;2.90;99.90
29281;DHT22;25048;49.590;11.026;2022-12-04T04:43:57;2.90;99.90
29281;DHT22;25048;49.590;11.026;2022-12-04T04:46:28;2.90;99.90
29281;DHT22;25048;49.590;11.026;2022-12-04T04:48:55;2.90;99.90
29281;DHT22;25048;49.590;11.026;2022-12-04T04:51:25;2.90;99.90
29281;DHT22;25048;49.590;11.026;2022-12-04T04:53:54;2.90;99.90
29281;DHT22;25048;49.590;11.026;2022-12-04T04:56:23;2.90;99.90
29281;DHT22;25048;49.590;11.026;2022-12-04T04:58:51;2.90;99.90
29281;DHT22;25048;49.590;11.026;2022-12-04T05:01:21;2.90;99.90
29281;DHT22;25048;49.590;11.026;2022-12-04T05:03:49;2.90;99.90
29281;DHT22;25048;49.590;11.026;2022-12-04T05:06:16;2.90;99.90
29281;DHT22;25048;49.590;11.026;2022-12-04T05:08:44;2.90;99.90
29281;DHT22;25048;49.590;11.026;2022-12-04T05:11:14;2.90;99.90
29281;DHT22;25048;49.590;11.026;2022-12-04T05:13:42;2.90;99.90
29281;DHT22;25048;49.590;11.026;2022-12-04T05:16:13;2.90;99.90
29281;DHT22;25048;49.590;11.026;2022-12-04T05:18:41;2.90;99.90
29281;DHT22;25048;49.590;11.026;2022-12-04T05:21:26;2.90;99.90
29281;DHT22;25048;49.590;11.026;2022-12-04T05:23:53;2.90;99.90
29281;DHT22;25048;49.590;11.026;2022-12-04T05:26:21;2.90;99.90
29281;DHT22;25048;49.590;11.026;2022-12-04T05:28:48;2.90;99.90
29281;DHT22;25048;49.590;11.026;2022-12-04T05:31:16;2.90;99.90
29281;DHT22;25048;49.590;11.026;2022-12-04T05:33:44;2.90;99.90
29281;DHT22;25048;49.590;11.026;2022-12-04T05:36:11;2.90;99.90
29281;DHT22;25048;49.590;11.026;2022-12-04T05:38:39;2.90;99.90
29281;DHT22;25048;49.590;11.026;2022-12-04T05:41:07;3.00;99.90
29281;DHT22;25048;49.590;11.026;2022-12-04T05:43:34;2.90;99.90
29281;DHT22;25048;49.590;11.026;2022-12-04T05:46:07;2.90;99.90
29281;DHT22;25048;49.590;11.026;2022-12-04T05:48:36;3.00;99.90
29281;DHT22;25048;49.590;11.026;2022-12-04T05:51:07;3.00;99.90
29281;DHT22;25048;49.590;11.026;2022-12-04T05:53:36;3.00;99.90
29281;DHT22;25048;49.590;11.026;2022-12-04T05:56:04;3.00;99.90
29281;DHT22;25048;49.590;11.026;2022-12-04T05:58:37;3.00;99.90
29281;DHT22;25048;49.590;11.026;2022-12-04T06:01:14;3.10;99.90
29281;DHT22;25048;49.590;11.026;2022-12-04T06:03:37;3.00;99.90
29281;DHT22;25048;49.590;11.026;2022-12-04T06:06:10;3.10;99.90
29281;DHT22;25048;49.590;11.026;2022-12-04T06:08:38;3.10;99.90
29281;DHT22;25048;49.590;11.026;2022-12-04T06:11:14;3.10;99.90
29281;DHT22;25048;49.590;11.026;2022-12-04T06:13:43;3.10;99.90
29281;DHT22;25048;49.590;11.026;2022-12-04T06:16:15;3.10;99.90
29281;DHT22;25048;49.590;11.026;2022-12-04T06:18:43;3.10;99.90
29281;DHT22;25048;49.590;11.026;2022-12-04T06:21:11;3.10;99.90
29281;DHT22;25048;49.590;11.026;2022-12-04T06:23:39;3.10;99.90
29281;DHT22;25048;49.590;11.026;2022-12-04T06:26:07;3.10;99.90
29281;DHT22;25048;49.590;11.026;2022-12-04T06:28:36;3.10;99.90
29281;DHT22;25048;49.590;11.026;2022-12-04T06:31:06;3.10;99.90
29281;DHT22;25048;49.590;11.026;2022-12-04T06:33:35;3.10;99.90
29281;DHT22;25048;49.590;11.026;2022-12-04T06:36:13;3.10;99.90
29281;DHT22;25048;49.590;11.026;2022-12-04T06:38:36;3.20;99.90
29281;DHT22;25048;49.590;11.026;2022-12-04T06:41:06;3.20;99.90
29281;DHT22;25048;49.590;11.026;2022-12-04T06:43:34;3.10;99.90
29281;DHT22;25048;49.590;11.026;2022-12-04T06:46:04;3.20;99.90
29281;DHT22;25048;49.590;11.026;2022-12-04T06:48:32;3.10;99.90
29281;DHT22;25048;49.590;11.026;2022-12-04T06:51:06;3.20;99.90
29281;DHT22;25048;49.590;11.026;2022-12-04T06:53:31;3.20;99.90
29281;DHT22;25048;49.590;11.026;2022-12-04T06:56:02;3.20;99.90
29281;DHT22;25048;49.590;11.026;2022-12-04T06:58:29;3.20;99.90
29281;DHT22;25048;49.590;11.026;2022-12-04T07:00:57;3.20;99.90
29281;DHT22;25048;49.590;11.026;2022-12-04T07:03:26;3.20;99.90
29281;DHT22;25048;49.590;11.026;2022-12-04T07:05:53;3.20;99.90
29281;DHT22;25048;49.590;11.026;2022-12-04T07:08:21;3.20;99.90
29281;DHT22;25048;49.590;11.026;2022-12-04T07:10:48;3.20;99.90
29281;DHT22;25048;49.590;11.026;2022-12-04T07:13:16;3.30;99.90
29281;DHT22;25048;49.590;11.026;2022-12-04T07:15:43;3.30;99.90
29281;DHT22;25048;49.590;11.026;2022-12-04T07:18:11;3.40;99.90
29281;DHT22;25048;49.590;11.026;2022-12-04T07:20:39;3.40;99.90
29281;DHT22;25048;49.590;11.026;2022-12-04T07:23:06;3.40;99.90
29281;DHT22;25048;49.590;11.026;2022-12-04T07:25:38;3.40;99.90
29281;DHT22;25048;49.590;11.026;2022-12-04T07:28:06;3.40;99.90
29281;DHT22;25048;49.590;11.026;2022-12-04T07:30:35;3.50;99.90
29281;DHT22;25048;49.590;11.026;2022-12-04T07:33:03;3.50;99.90
29281;DHT22;25048;49.590;11.026;2022-12-04T07:35:30;3.50;99.90
29281;DHT22;25048;49.590;11.026;2022-12-04T07:37:58;3.60;99.90
29281;DHT22;25048;49.590;11.026;2022-12-04T07:40:25;3.50;99.90
29281;DHT22;25048;49.590;11.026;2022-12-04T07:42:53;3.60;99.90
29281;DHT22;25048;49.590;11.026;2022-12-04T07:45:20;3.60;99.90
29281;DHT22;25048;49.590;11.026;2022-12-04T07:47:48;3.60;99.90
29281;DHT22;25048;49.590;11.026;2022-12-04T07:50:15;3.70;99.90
29281;DHT22;25048;49.590;11.026;2022-12-04T07:52:43;3.80;99.90
29281;DHT22;25048;49.590;11.026;2022-12-04T07:55:10;3.80;99.90
29281;DHT22;25048;49.590;11.026;2022-12-04T07:57:38;3.80;99.90
29281;DHT22;25048;49.590;11.026;2022-12-04T08:00:06;3.90;99.90
29281;DHT22;25048;49.590;11.026;2022-12-04T08:02:34;3.90;99.90
29281;DHT22;25048;49.590;11.026;2022-12-04T08:05:01;4.00;99.90
29281;DHT22;25048;49.590;11.026;2022-12-04T08:07:29;4.00;99.90
29281;DHT22;25048;49.590;11.026;2022-12-04T08:09:56;4.10;99.90
29281;DHT22;25048;49.590;11.026;2022-12-04T08:12:24;4.10;99.90
29281;DHT22;25048;49.590;11.026;2022-12-04T08:14:51;4.20;99.90
29281;DHT22;25048;49.590;11.026;2022-12-04T08:17:19;4.20;99.90
29281;DHT22;25048;49.590;11.026;2022-12-04T08:19:46;4.20;99.90
29281;DHT22;25048;49.590;11.026;2022-12-04T08:22:14;4.20;99.90
29281;DHT22;25048;49.590;11.026;2022-12-04T08:24:41;4.20;99.90
29281;DHT22;25048;49.590;11.026;2022-12-04T08:27:09;4.20;99.90
29281;DHT22;25048;49.590;11.026;2022-12-04T08:29:36;4.20;99.90
29281;DHT22;25048;49.590;11.026;2022-12-04T08:32:05;4.30;99.90
29281;DHT22;25048;49.590;11.026;2022-12-04T08:34:32;4.30;99.90
29281;DHT22;25048;49.590;11.026;2022-12-04T08:37:00;4.40;99.90
29281;DHT22;25048;49.590;11.026;2022-12-04T08:39:28;4.40;99.90
29281;DHT22;25048;49.590;11.026;2022-12-04T08:41:55;4.40;99.90
29281;DHT22;25048;49.590;11.026;2022-12-04T08:44:23;4.40;99.90
29281;DHT22;25048;49.590;11.026;2022-12-04T08:46:50;4.40;99.90
29281;DHT22;25048;49.590;11.026;2022-12-04T08:49:18;4.50;99.90
29281;DHT22;25048;49.590;11.026;2022-12-04T08:51:45;4.40;99.90
29281;DHT22;25048;49.590;11.026;2022-12-04T08:54:13;4.50;99.90
29281;DHT22;25048;49.590;11.026;2022-12-04T08:56:40;4.50;99.90
29281;DHT22;25048;49.590;11.026;2022-12-04T08:59:11;4.50;99.90
29281;DHT22;25048;49.590;11.026;2022-12-04T09:01:39;4.60;99.90
29281;DHT22;25048;49.590;11.026;2022-12-04T09:04:07;4.60;99.90
29281;DHT22;25048;49.590;11.026;2022-12-04T09:06:34;4.60;99.90
29281;DHT22;25048;49.590;11.026;2022-12-04T09:09:02;4.60;99.90
29281;DHT22;25048;49.590;11.026;2022-12-04T09:11:30;4.70;99.90
29281;DHT22;25048;49.590;11.026;2022-12-04T09:13:59;4.70;99.90
29281;DHT22;25048;49.590;11.026;2022-12-04T09:16:27;4.80;99.90
29281;DHT22;25048;49.590;11.026;2022-12-04T09:18:56;4.90;99.90
29281;DHT22;25048;49.590;11.026;2022-12-04T09:21:24;5.00;99.90
29281;DHT22;25048;49.590;11.026;2022-12-04T09:23:51;5.10;99.90
29281;DHT22;25048;49.590;11.026;2022-12-04T09:26:28;5.20;99.90
29281;DHT22;25048;49.590;11.026;2022-12-04T09:28:57;5.20;99.90
29281;DHT22;25048;49.590;11.026;2022-12-04T09:31:25;5.20;99.90
29281;DHT22;25048;49.590;11.026;2022-12-04T09:33:52;5.10;99.90
29281;DHT22;25048;49.590;11.026;2022-12-04T09:36:20;5.10;99.90
29281;DHT22;25048;49.590;11.026;2022-12-04T09:38:50;5.10;99.90
29281;DHT22;25048;49.590;11.026;2022-12-04T09:44:07;5.10;99.90
29281;DHT22;25048;49.590;11.026;2022-12-04T09:46:52;5.20;99.90
29281;DHT22;25048;49.590;11.026;2022-12-04T09:49:28;5.30;99.90
29281;DHT22;25048;49.590;11.026;2022-12-04T09:51:54;5.30;99.90
29281;DHT22;25048;49.590;11.026;2022-12-04T09:54:30;5.40;99.90
29281;DHT22;25048;49.590;11.026;2022-12-04T09:56:59;5.50;99.90
29281;DHT22;25048;49.590;11.026;2022-12-04T09:59:28;5.60;99.90
29281;DHT22;25048;49.590;11.026;2022-12-04T10:02:02;5.70;99.90
29281;DHT22;25048;49.590;11.026;2022-12-04T10:04:30;5.60;99.90
29281;DHT22;25048;49.590;11.026;2022-12-04T10:07:25;5.60;99.90
29281;DHT22;25048;49.590;11.026;2022-12-04T10:12:37;5.60;99.90
29281;DHT22;25048;49.590;11.026;2022-12-04T10:15:12;5.60;99.90
29281;DHT22;25048;49.590;11.026;2022-12-04T10:17:44;5.60;99.90
29281;DHT22;25048;49.590;11.026;2022-12-04T10:20:22;5.70;99.90
29281;DHT22;25048;49.590;11.026;2022-12-04T10:23:16;5.90;99.90
29281;DHT22;25048;49.590;11.026;2022-12-04T10:25:41;6.00;99.90
29281;DHT22;25048;49.590;11.026;2022-12-04T10:28:33;6.00;99.90
29281;DHT22;25048;49.590;11.026;2022-12-04T10:31:03;6.00;99.90
29281;DHT22;25048;49.590;11.026;2022-12-04T10:33:43;6.10;99.90
29281;DHT22;25048;49.590;11.026;2022-12-04T10:36:17;6.20;99.90
29281;DHT22;25048;49.590;11.026;2022-12-04T10:39:01;6.30;99.90
29281;DHT22;25048;49.590;11.026;2022-12-04T10:41:41;6.30;99.90
29281;DHT22;25048;49.590;11.026;2022-12-04T10:44:13;6.20;99.90
29281;DHT22;25048;49.590;11.026;2022-12-04T10:46:42;6.30;99.90
29281;DHT22;25048;49.590;11.026;2022-12-04T10:49:18;6.30;99.90
29281;DHT22;25048;49.590;11.026;2022-12-04T10:51:46;6.40;99.90
29281;DHT22;25048;49.590;11.026;2022-12-04T10:57:01;6.50;99.90
29281;DHT22;25048;49.590;11.026;2022-12-04T10:59:29;6.60;99.90
29281;DHT22;25048;49.590;11.026;2022-12-04T11:02:18;6.70;99.90
29281;DHT22;25048;49.590;11.026;2022-12-04T11:04:42;6.80;99.90
29281;DHT22;25048;49.590;11.026;2022-12-04T11:07:25;6.90;99.90
29281;DHT22;25048;49.590;11.026;2022-12-04T11:10:43;7.00;99.90
29281;DHT22;25048;49.590;11.026;2022-12-04T11:12:29;6.90;99.90
29281;DHT22;25048;49.590;11.026;2022-12-04T11:15:07;6.90;99.90
29281;DHT22;25048;49.590;11.026;2022-12-04T11:17:30;6.90;99.90
29281;DHT22;25048;49.590;11.026;2022-12-04T11:20:06;6.90;99.90
29281;DHT22;25048;49.590;11.026;2022-12-04T11:22:36;6.90;99.90
29281;DHT22;25048;49.590;11.026;2022-12-04T11:25:05;6.90;99.90
29281;DHT22;25048;49.590;11.026;2022-12-04T11:27:33;6.90;99.90
29281;DHT22;25048;49.590;11.026;2022-12-04T11:30:12;6.90;99.90
29281;DHT22;25048;49.590;11.026;2022-12-04T11:32:38;7.00;99.90
29281;DHT22;25048;49.590;11.026;2022-12-04T11:35:21;7.10;99.90
29281;DHT22;25048;49.590;11.026;2022-12-04T11:37:57;7.30;99.90
29281;DHT22;25048;49.590;11.026;2022-12-04T11:40:25;7.50;99.90
29281;DHT22;25048;49.590;11.026;2022-12-04T11:45:38;7.70;99.90
29281;DHT22;25048;49.590;11.026;2022-12-04T11:48:14;7.80;99.90
29281;DHT22;25048;49.590;11.026;2022-12-04T11:53:49;7.50;99.90
29281;DHT22;25048;49.590;11.026;2022-12-04T11:56:41;7.40;99.90
29281;DHT22;25048;49.590;11.026;2022-12-04T11:59:28;7.20;99.90
29281;DHT22;25048;49.590;11.026;2022-12-04T12:01:59;7.10;99.90
29281;DHT22;25048;49.590;11.026;2022-12-04T12:10:12;7.00;99.90
29281;DHT22;25048;49.590;11.026;2022-12-04T12:12:59;7.00;99.90
29281;DHT22;25048;49.590;11.026;2022-12-04T12:21:15;7.10;99.90
29281;DHT22;25048;49.590;11.026;2022-12-04T12:26:59;7.10;99.90
29281;DHT22;25048;49.590;11.026;2022-12-04T12:32:20;7.20;99.90
29281;DHT22;25048;49.590;11.026;2022-12-04T12:34:45;7.20;99.90
29281;DHT22;25048;49.590;11.026;2022-12-04T12:37:28;7.20;99.90
29281;DHT22;25048;49.590;11.026;2022-12-04T12:42:52;7.10;99.90
29281;DHT22;25048;49.590;11.026;2022-12-04T12:45:32;7.00;99.90
29281;DHT22;25048;49.590;11.026;2022-12-04T12:48:01;7.10;99.90
29281;DHT22;25048;49.590;11.026;2022-12-04T12:50:34;7.00;99.90
29281;DHT22;25048;49.590;11.026;2022-12-04T12:53:02;6.90;99.90
29281;DHT22;25048;49.590;11.026;2022-12-04T12:55:40;6.90;99.90
29281;DHT22;25048;49.590;11.026;2022-12-04T12:58:11;6.90;99.90
29281;DHT22;25048;49.590;11.026;2022-12-04T13:00:42;6.90;99.90
29281;DHT22;25048;49.590;11.026;2022-12-04T13:03:31;6.90;99.90
29281;DHT22;25048;49.590;11.026;2022-12-04T13:06:02;7.00;99.90
29281;DHT22;25048;49.590;11.026;2022-12-04T13:08:38;7.00;99.90
29281;DHT22;25048;49.590;11.026;2022-12-04T13:13:38;6.90;99.90
29281;DHT22;25048;49.590;11.026;2022-12-04T13:16:25;6.90;99.90
29281;DHT22;25048;49.590;11.026;2022-12-04T13:19:15;6.90;99.90
29281;DHT22;25048;49.590;11.026;2022-12-04T13:30:21;6.90;99.90
29281;DHT22;25048;49.590;11.026;2022-12-04T13:35:53;6.80;99.90
29281;DHT22;25048;49.590;11.026;2022-12-04T13:41:07;6.80;99.90
29281;DHT22;25048;49.590;11.026;2022-12-04T13:43:46;6.90;99.90
29281;DHT22;25048;49.590;11.026;2022-12-04T13:46:21;6.90;99.90
29281;DHT22;25048;49.590;11.026;2022-12-04T13:48:39;6.90;99.90
29281;DHT22;25048;49.590;11.026;2022-12-04T13:51:22;6.90;99.90
29281;DHT22;25048;49.590;11.026;2022-12-04T13:54:18;6.90;99.90
29281;DHT22;25048;49.590;11.026;2022-12-04T13:56:32;6.90;99.90
29281;DHT22;25048;49.590;11.026;2022-12-04T13:59:19;6.80;99.90
29281;DHT22;25048;49.590;11.026;2022-12-04T14:01:43;6.80;99.90
29281;DHT22;25048;49.590;11.026;2022-12-04T14:04:01;6.80;99.90
29281;DHT22;25048;49.590;11.026;2022-12-04T14:06:42;6.80;99.90
29281;DHT22;25048;49.590;11.026;2022-12-04T14:09:29;6.80;99.90
29281;DHT22;25048;49.590;11.026;2022-12-04T14:12:00;6.70;99.90
29281;DHT22;25048;49.590;11.026;2022-12-04T14:14:41;6.70;99.90
29281;DHT22;25048;49.590;11.026;2022-12-04T14:20:04;6.70;99.90
29281;DHT22;25048;49.590;11.026;2022-12-04T14:27:42;6.60;99.90
29281;DHT22;25048;49.590;11.026;2022-12-04T14:33:04;6.50;99.90
29281;DHT22;25048;49.590;11.026;2022-12-04T14:35:29;6.50;99.90
29281;DHT22;25048;49.590;11.026;2022-12-04T14:38:03;6.50;99.90
29281;DHT22;25048;49.590;11.026;2022-12-04T14:40:37;6.40;99.90
29281;DHT22;25048;49.590;11.026;2022-12-04T14:43:01;6.40;99.90
29281;DHT22;25048;49.590;11.026;2022-12-04T14:45:44;6.30;99.90
29281;DHT22;25048;49.590;11.026;2022-12-04T14:48:25;6.30;99.90
29281;DHT22;25048;49.590;11.026;2022-12-04T14:51:29;6.20;99.90
29281;DHT22;25048;49.590;11.026;2022-12-04T14:57:15;6.20;99.90
29281;DHT22;25048;49.590;11.026;2022-12-04T14:59:44;6.10;99.90
29281;DHT22;25048;49.590;11.026;2022-12-04T15:02:17;6.10;99.90
29281;DHT22;25048;49.590;11.026;2022-12-04T15:04:48;6.00;99.90
29281;DHT22;25048;49.590;11.026;2022-12-04T15:07:24;6.00;99.90
29281;DHT22;25048;49.590;11.026;2022-12-04T15:09:58;6.00;99.90
29281;DHT22;25048;49.590;11.026;2022-12-04T15:12:53;5.90;99.90
29281;DHT22;25048;49.590;11.026;2022-12-04T15:15:24;5.90;99.90
29281;DHT22;25048;49.590;11.026;2022-12-04T15:18:00;5.90;99.90
29281;DHT22;25048;49.590;11.026;2022-12-04T15:20:33;5.80;99.90
29281;DHT22;25048;49.590;11.026;2022-12-04T15:23:01;5.80;99.90
29281;DHT22;25048;49.590;11.026;2022-12-04T15:25:36;5.80;99.90
29281;DHT22;25048;49.590;11.026;2022-12-04T15:28:10;5.80;99.90
29281;DHT22;25048;49.590;11.026;2022-12-04T15:30:37;5.70;99.90
29281;DHT22;25048;49.590;11.026;2022-12-04T15:33:07;5.70;99.90
29281;DHT22;25048;49.590;11.026;2022-12-04T15:35:37;5.60;99.90
29281;DHT22;25048;49.590;11.026;2022-12-04T15:38:10;5.60;99.90
29281;DHT22;25048;49.590;11.026;2022-12-04T15:40:37;5.50;99.90
29281;DHT22;25048;49.590;11.026;2022-12-04T15:43:14;5.50;99.90
29281;DHT22;25048;49.590;11.026;2022-12-04T15:45:43;5.50;99.90
29281;DHT22;25048;49.590;11.026;2022-12-04T15:48:11;5.60;99.90
29281;DHT22;25048;49.590;11.026;2022-12-04T15:50:41;5.60;99.90
29281;DHT22;25048;49.590;11.026;2022-12-04T15:53:19;5.50;99.90
29281;DHT22;25048;49.590;11.026;2022-12-04T15:55:50;5.60;99.90
29281;DHT22;25048;49.590;11.026;2022-12-04T15:58:21;5.60;99.90
29281;DHT22;25048;49.590;11.026;2022-12-04T16:00:54;5.60;99.90
29281;DHT22;25048;49.590;11.026;2022-12-04T16:03:30;5.60;99.90
29281;DHT22;25048;49.590;11.026;2022-12-04T16:08:37;5.60;99.90
29281;DHT22;25048;49.590;11.026;2022-12-04T16:11:30;5.60;99.90
29281;DHT22;25048;49.590;11.026;2022-12-04T16:13:37;5.60;99.90
29281;DHT22;25048;49.590;11.026;2022-12-04T16:16:06;5.70;99.90
29281;DHT22;25048;49.590;11.026;2022-12-04T16:18:37;5.70;99.90
29281;DHT22;25048;49.590;11.026;2022-12-04T16:21:07;5.70;99.90
29281;DHT22;25048;49.590;11.026;2022-12-04T16:23:34;5.70;99.90
29281;DHT22;25048;49.590;11.026;2022-12-04T16:26:02;5.70;99.90
29281;DHT22;25048;49.590;11.026;2022-12-04T16:28:29;5.70;99.90
29281;DHT22;25048;49.590;11.026;2022-12-04T16:30:57;5.70;99.90
29281;DHT22;25048;49.590;11.026;2022-12-04T16:33:24;5.70;99.90
29281;DHT22;25048;49.590;11.026;2022-12-04T16:35:52;5.70;99.90
29281;DHT22;25048;49.590;11.026;2022-12-04T16:38:19;5.70;99.90
29281;DHT22;25048;49.590;11.026;2022-12-04T16:40:47;5.70;99.90
29281;DHT22;25048;49.590;11.026;2022-12-04T16:43:15;5.70;99.90
29281;DHT22;25048;49.590;11.026;2022-12-04T16:45:51;5.70;99.90
29281;DHT22;25048;49.590;11.026;2022-12-04T16:48:14;5.70;99.90
29281;DHT22;25048;49.590;11.026;2022-12-04T16:50:42;5.70;99.90
29281;DHT22;25048;49.590;11.026;2022-12-04T16:53:17;5.70;99.90
29281;DHT22;25048;49.590;11.026;2022-12-04T16:55:47;5.70;99.90
29281;DHT22;25048;49.590;11.026;2022-12-04T16:58:16;5.70;99.90
29281;DHT22;25048;49.590;11.026;2022-12-04T17:00:49;5.60;99.90
29281;DHT22;25048;49.590;11.026;2022-12-04T17:03:21;5.70;99.90
29281;DHT22;25048;49.590;11.026;2022-12-04T17:05:45;5.60;99.90
29281;DHT22;25048;49.590;11.026;2022-12-04T17:08:12;5.70;99.90
29281;DHT22;25048;49.590;11.026;2022-12-04T17:10:40;5.70;99.90
29281;DHT22;25048;49.590;11.026;2022-12-04T17:13:07;5.70;99.90
29281;DHT22;25048;49.590;11.026;2022-12-04T17:15:35;5.80;99.90
29281;DHT22;25048;49.590;11.026;2022-12-04T17:18:02;5.70;99.90
29281;DHT22;25048;49.590;11.026;2022-12-04T17:20:30;5.70;99.90
29281;DHT22;25048;49.590;11.026;2022-12-04T17:22:58;5.70;99.90